Time;durP1;ratioP1;P1;durP2;ratioP2;P2;SDS_P1;SDS_P2;PMS_P1;PMS_P2;Temp;Humidity;BMP_temperature;BMP_pressure;BME280_temperature;BME280_humidity;BME280_pressure;Samples;Min_cycle;Max_cycle;Signal;HPM_P1;HPM_P2
2022/08/08 00:00:22;;;;;;;3.25;2.00;;;13.10;99.90;;;;;;5032725;28;20058;-69
2022/08/08 00:02:57;;;;;;;5.20;2.70;;;13.10;99.90;;;;;;5035806;28;20049;-69
2022/08/08 00:05:39;;;;;;;2.92;2.03;;;13.20;99.90;;;;;;5017952;28;20041;-69
2022/08/08 00:08:16;;;;;;;3.60;2.25;;;13.30;99.90;;;;;;5035726;28;20050;-69
2022/08/08 00:10:54;;;;;;;3.53;2.10;;;13.30;99.90;;;;;;5036209;28;20087;-69
2022/08/08 00:13:34;;;;;;;2.70;1.90;;;13.10;99.90;;;;;;5035573;28;20050;-70
2022/08/08 00:16:42;;;;;;;3.17;2.50;;;13.00;99.90;;;;;;5035635;28;20081;-69
2022/08/08 00:19:13;;;;;;;2.45;1.70;;;13.00;99.90;;;;;;5035565;28;20060;-69
2022/08/08 00:21:46;;;;;;;4.55;2.33;;;12.90;99.90;;;;;;5035790;28;20386;-70
2022/08/08 00:24:29;;;;;;;3.08;2.22;;;12.80;99.90;;;;;;5018895;28;20060;-69
2022/08/08 00:26:57;;;;;;;2.63;2.00;;;12.80;99.90;;;;;;5035502;28;20049;-69
2022/08/08 00:29:29;;;;;;;3.58;2.20;;;12.70;99.90;;;;;;5035130;28;20072;-70
2022/08/08 00:32:03;;;;;;;3.15;2.15;;;12.70;99.90;;;;;;5036177;28;20061;-69
2022/08/08 00:35:14;;;;;;;2.60;1.90;;;12.70;99.90;;;;;;5035881;28;20046;-69
2022/08/08 00:38:01;;;;;;;2.80;1.95;;;12.60;99.90;;;;;;5035810;28;20099;-69
2022/08/08 00:40:26;;;;;;;3.17;2.30;;;12.50;99.90;;;;;;5020485;28;20348;-69
2022/08/08 00:43:30;;;;;;;3.67;2.40;;;12.40;99.90;;;;;;5035124;28;20087;-69
2022/08/08 00:46:26;;;;;;;3.33;2.45;;;12.30;99.90;;;;;;5035075;28;20052;-69
2022/08/08 00:48:55;;;;;;;5.38;2.75;;;12.20;99.90;;;;;;5018398;28;20099;-69
2022/08/08 00:51:50;;;;;;;3.33;2.78;;;12.10;99.90;;;;;;5034911;28;20057;-69
2022/08/08 00:55:02;;;;;;;3.53;2.80;;;12.20;99.90;;;;;;5035220;28;20049;-69
2022/08/08 00:58:05;;;;;;;4.35;2.13;;;12.20;99.90;;;;;;5034579;28;20541;-69
2022/08/08 01:00:46;;;;;;;3.40;2.30;;;12.20;99.90;;;;;;5033842;28;20098;-69
2022/08/08 01:03:37;;;;;;;4.78;2.53;;;12.20;99.90;;;;;;5034835;28;20050;-69
2022/08/08 01:06:31;;;;;;;2.83;2.20;;;12.30;99.90;;;;;;5035472;28;20053;-69
2022/08/08 01:09:22;;;;;;;3.30;1.95;;;12.30;99.90;;;;;;5000763;28;20053;-69
2022/08/08 01:12:04;;;;;;;3.63;2.20;;;12.30;99.90;;;;;;5034801;28;20356;-69
2022/08/08 01:15:03;;;;;;;2.83;2.00;;;12.30;99.90;;;;;;5035132;28;20103;-69
2022/08/08 01:18:04;;;;;;;3.13;2.10;;;12.20;99.90;;;;;;5034573;28;20049;-70
2022/08/08 01:20:49;;;;;;;2.53;1.80;;;12.20;99.90;;;;;;4967581;28;20065;-69
2022/08/08 01:23:26;;;;;;;2.40;1.90;;;12.20;99.90;;;;;;5016850;28;20049;-69
2022/08/08 01:26:01;;;;;;;2.88;1.80;;;12.20;99.90;;;;;;5034399;28;20110;-70
2022/08/08 01:28:52;;;;;;;2.65;1.80;;;12.20;99.90;;;;;;5034532;28;20053;-69
2022/08/08 01:31:38;;;;;;;3.15;2.00;;;12.10;99.90;;;;;;5034179;28;20049;-69
2022/08/08 01:34:54;;;;;;;2.50;1.80;;;11.90;99.90;;;;;;5034315;28;20045;-69
2022/08/08 01:37:57;;;;;;;2.80;1.90;;;11.80;99.90;;;;;;5000553;28;20053;-69
2022/08/08 01:40:53;;;;;;;2.70;1.77;;;11.60;99.90;;;;;;5034120;28;20047;-69
2022/08/08 01:43:52;;;;;;;2.65;1.65;;;11.50;99.90;;;;;;5034088;28;20052;-69
2022/08/08 01:46:56;;;;;;;3.20;1.90;;;11.50;99.90;;;;;;5034194;28;20450;-69
2022/08/08 01:49:49;;;;;;;2.13;1.15;;;11.50;99.90;;;;;;5034424;28;20092;-70
2022/08/08 01:52:30;;;;;;;3.85;2.20;;;11.40;99.90;;;;;;5034134;28;20128;-70
2022/08/08 01:55:23;;;;;;;3.72;2.30;;;11.40;99.90;;;;;;5017109;28;20164;-71
2022/08/08 01:58:04;;;;;;;2.83;2.00;;;11.40;99.90;;;;;;5033932;28;20049;-69
2022/08/08 02:01:07;;;;;;;3.35;1.73;;;11.30;99.90;;;;;;5034557;28;20045;-69
2022/08/08 02:03:56;;;;;;;2.60;2.00;;;11.30;99.90;;;;;;5033870;28;20487;-69
2022/08/08 02:06:43;;;;;;;3.55;1.80;;;11.30;99.90;;;;;;5034351;28;20144;-70
2022/08/08 02:09:41;;;;;;;3.22;2.47;;;11.30;99.90;;;;;;5016453;28;20381;-69
2022/08/08 02:12:27;;;;;;;4.30;2.38;;;11.30;99.90;;;;;;5034250;28;20049;-69
2022/08/08 02:15:35;;;;;;;2.97;2.15;;;11.40;99.90;;;;;;5033699;28;20478;-70
2022/08/08 02:18:48;;;;;;;3.58;2.55;;;11.40;99.90;;;;;;5032709;28;20136;-69
2022/08/08 02:24:23;;;;;;;3.67;2.05;;;11.40;99.90;;;;;;5033403;28;20088;-70
2022/08/08 02:26:55;;;;;;;4.13;2.30;;;11.40;99.90;;;;;;5033941;28;20065;-69
2022/08/08 02:29:44;;;;;;;3.80;2.45;;;11.40;99.90;;;;;;5034005;28;20107;-69
2022/08/08 02:32:14;;;;;;;3.97;2.53;;;11.40;99.90;;;;;;5033333;28;20057;-70
2022/08/08 02:35:02;;;;;;;3.22;2.30;;;11.40;99.90;;;;;;5016229;28;20482;-69
2022/08/08 02:38:03;;;;;;;2.90;2.10;;;11.50;99.90;;;;;;5033220;28;20049;-69
2022/08/08 02:40:45;;;;;;;3.90;2.10;;;11.40;99.90;;;;;;4953117;29;20127;-70
2022/08/08 02:43:38;;;;;;;2.40;1.80;;;11.30;99.90;;;;;;5025367;28;20093;-69
2022/08/08 02:46:09;;;;;;;2.95;2.13;;;11.30;99.90;;;;;;5033201;28;20100;-70
2022/08/08 02:49:05;;;;;;;3.17;2.00;;;11.30;99.90;;;;;;5015911;28;20103;-69
2022/08/08 02:51:36;;;;;;;3.30;1.67;;;11.40;99.90;;;;;;5033701;28;20117;-69
2022/08/08 02:54:17;;;;;;;3.17;1.70;;;11.30;99.90;;;;;;5033085;28;20136;-69
2022/08/08 02:57:07;;;;;;;3.92;2.17;;;11.30;99.90;;;;;;5033936;28;20080;-69
2022/08/08 02:59:50;;;;;;;2.83;1.80;;;11.20;99.90;;;;;;5033154;28;20136;-69
2022/08/08 03:02:54;;;;;;;3.47;1.77;;;11.10;99.90;;;;;;5033520;28;20386;-69
2022/08/08 03:05:41;;;;;;;2.33;1.80;;;11.10;99.90;;;;;;5033755;28;20061;-69
2022/08/08 03:08:31;;;;;;;3.25;1.92;;;11.00;99.90;;;;;;5032915;28;20049;-69
2022/08/08 03:11:40;;;;;;;3.53;2.05;;;11.00;99.90;;;;;;5032863;28;20041;-69
2022/08/08 03:14:39;;;;;;;3.47;1.60;;;11.00;99.90;;;;;;5033458;28;20099;-69
2022/08/08 03:17:16;;;;;;;2.78;1.60;;;11.00;99.90;;;;;;5032877;28;20049;-69
2022/08/08 03:20:06;;;;;;;3.30;1.80;;;11.00;99.90;;;;;;4999907;28;20055;-69
2022/08/08 03:22:32;;;;;;;2.63;1.77;;;11.10;99.90;;;;;;5032855;28;20187;-69
2022/08/08 03:25:05;;;;;;;2.70;1.40;;;11.00;99.90;;;;;;5036589;28;20467;-69
2022/08/08 03:27:38;;;;;;;3.08;1.70;;;11.00;99.90;;;;;;5036723;28;20053;-69
2022/08/08 03:30:08;;;;;;;3.17;1.48;;;11.00;99.90;;;;;;5036300;28;20061;-69
2022/08/08 03:33:17;;;;;;;3.75;2.00;;;10.90;99.90;;;;;;5036253;28;20482;-69
2022/08/08 03:35:25;;;;;;;2.38;1.70;;;10.90;99.90;;;;;;5025422;28;20049;-69
2022/08/08 03:37:52;;;;;;;2.28;1.60;;;10.90;99.90;;;;;;5018903;28;20052;-69
2022/08/08 03:40:19;;;;;;;2.45;1.70;;;10.90;99.90;;;;;;5036352;28;20041;-69
2022/08/08 03:42:46;;;;;;;3.85;1.70;;;10.90;99.90;;;;;;5036281;28;20049;-69
2022/08/08 03:45:18;;;;;;;2.70;1.90;;;10.90;99.90;;;;;;5036954;28;20045;-69
2022/08/08 03:48:04;;;;;;;2.85;1.60;;;10.90;99.90;;;;;;5036248;28;20046;-69
2022/08/08 03:50:31;;;;;;;3.57;1.60;;;10.90;99.90;;;;;;5018485;28;20038;-69
2022/08/08 03:53:07;;;;;;;2.38;1.50;;;11.00;99.90;;;;;;5035682;28;20093;-69
2022/08/08 03:55:38;;;;;;;2.90;1.80;;;11.00;99.90;;;;;;5035207;28;20136;-69
2022/08/08 03:58:04;;;;;;;3.65;1.75;;;11.00;99.90;;;;;;5018069;28;20111;-69
2022/08/08 04:00:30;;;;;;;2.20;1.73;;;11.00;99.90;;;;;;5035742;28;20038;-69
2022/08/08 04:03:06;;;;;;;3.75;1.80;;;11.00;99.90;;;;;;5035871;28;20088;-69
2022/08/08 04:05:34;;;;;;;2.60;1.92;;;11.00;99.90;;;;;;5035794;28;20046;-69
2022/08/08 04:08:01;;;;;;;3.15;1.60;;;10.90;99.90;;;;;;5035818;28;20056;-69
2022/08/08 04:10:29;;;;;;;3.40;1.83;;;10.90;99.90;;;;;;5035395;28;20478;-69
2022/08/08 04:12:55;;;;;;;4.10;1.92;;;10.90;99.90;;;;;;5035798;28;20056;-69
2022/08/08 04:15:21;;;;;;;3.28;2.20;;;10.90;99.90;;;;;;5035794;28;20076;-69
2022/08/08 04:17:47;;;;;;;4.38;1.70;;;10.90;99.90;;;;;;5035606;28;20120;-69
2022/08/08 04:20:13;;;;;;;2.15;1.40;;;10.90;99.90;;;;;;5035702;28;20045;-69
2022/08/08 04:22:38;;;;;;;3.00;1.92;;;10.90;99.90;;;;;;5035569;28;20045;-69
2022/08/08 04:25:06;;;;;;;1.92;1.35;;;10.90;99.90;;;;;;5035529;28;20068;-69
2022/08/08 04:27:33;;;;;;;3.28;1.60;;;10.90;99.90;;;;;;5035511;28;20048;-69
2022/08/08 04:29:59;;;;;;;4.10;1.90;;;10.80;99.90;;;;;;5035263;28;20195;-69
2022/08/08 04:32:24;;;;;;;3.90;2.25;;;10.90;99.90;;;;;;5035353;28;20512;-69
2022/08/08 04:34:50;;;;;;;3.03;2.00;;;10.90;99.90;;;;;;5035327;28;20128;-69
2022/08/08 04:37:16;;;;;;;4.22;1.77;;;11.00;99.90;;;;;;5035541;28;20475;-69
2022/08/08 04:39:42;;;;;;;2.75;1.85;;;11.00;99.90;;;;;;5018538;28;20435;-69
2022/08/08 04:42:07;;;;;;;2.78;1.98;;;11.10;99.90;;;;;;5035717;28;20049;-69
2022/08/08 04:44:33;;;;;;;3.55;1.83;;;11.20;99.90;;;;;;5035123;28;20393;-69
2022/08/08 04:46:59;;;;;;;3.67;1.60;;;11.30;99.90;;;;;;5035636;28;20049;-69
2022/08/08 04:49:25;;;;;;;2.97;2.00;;;11.50;99.90;;;;;;5035151;28;20375;-69
2022/08/08 04:51:51;;;;;;;2.55;1.75;;;11.60;99.90;;;;;;5035669;28;20042;-69
2022/08/08 04:54:17;;;;;;;3.28;1.60;;;11.80;99.90;;;;;;5034922;28;20501;-69
2022/08/08 04:56:43;;;;;;;3.40;1.60;;;11.90;99.90;;;;;;5034963;28;20049;-69
2022/08/08 04:59:09;;;;;;;2.53;1.90;;;12.10;99.90;;;;;;5034843;28;20053;-69
2022/08/08 05:01:34;;;;;;;3.95;1.83;;;12.20;99.90;;;;;;5034926;28;20041;-69
2022/08/08 05:04:00;;;;;;;3.13;1.90;;;12.30;99.90;;;;;;5034875;28;20390;-69
2022/08/08 05:06:26;;;;;;;2.75;1.90;;;12.50;99.90;;;;;;5017414;28;20053;-69
2022/08/08 05:08:51;;;;;;;3.40;1.92;;;12.50;99.90;;;;;;5034726;28;20048;-69
2022/08/08 05:11:18;;;;;;;4.03;1.77;;;12.70;99.90;;;;;;5034582;28;20045;-69
2022/08/08 05:13:43;;;;;;;5.13;1.90;;;12.80;99.90;;;;;;5034822;28;20418;-69
2022/08/08 05:16:09;;;;;;;3.25;1.80;;;12.90;99.90;;;;;;5034591;28;20058;-69
2022/08/08 05:18:35;;;;;;;3.95;2.10;;;13.10;99.90;;;;;;5034517;28;20135;-69
2022/08/08 05:21:07;;;;;;;5.68;2.10;;;13.20;99.90;;;;;;5034201;28;20474;-69
2022/08/08 05:23:33;;;;;;;4.35;1.80;;;13.30;99.90;;;;;;5016903;28;20047;-69
2022/08/08 05:26:00;;;;;;;3.65;2.00;;;13.40;99.90;;;;;;5034415;28;20457;-69
2022/08/08 05:28:26;;;;;;;4.72;2.08;;;13.50;99.90;;;;;;5016378;28;20111;-69
2022/08/08 05:30:52;;;;;;;2.35;1.42;;;13.60;99.90;;;;;;5034189;28;20049;-69
2022/08/08 05:33:18;;;;;;;3.08;1.90;;;13.70;99.90;;;;;;5033893;28;20132;-69
2022/08/08 05:35:45;;;;;;;3.38;2.00;;;13.80;99.90;;;;;;5034149;28;20054;-69
2022/08/08 05:38:16;;;;;;;2.60;1.77;;;13.90;99.90;;;;;;5034134;28;20045;-69
2022/08/08 05:40:51;;;;;;;3.05;1.75;;;14.10;99.90;;;;;;5034164;28;20494;-69
2022/08/08 05:43:29;;;;;;;3.25;2.05;;;14.20;99.90;;;;;;5034083;28;20045;-69
2022/08/08 05:46:01;;;;;;;3.17;2.00;;;14.20;99.90;;;;;;5033604;28;20037;-69
2022/08/08 05:48:27;;;;;;;3.70;2.22;;;14.40;99.90;;;;;;5034005;28;20089;-69
2022/08/08 05:50:53;;;;;;;3.22;1.73;;;14.50;99.90;;;;;;5033822;28;20049;-69
2022/08/08 05:53:26;;;;;;;3.63;1.98;;;14.60;99.90;;;;;;5034182;28;20098;-69
2022/08/08 05:55:54;;;;;;;4.03;1.95;;;14.70;99.90;;;;;;5034378;28;20397;-70
2022/08/08 05:58:27;;;;;;;6.10;2.47;;;14.80;99.90;;;;;;5033746;28;20051;-70
2022/08/08 06:00:55;;;;;;;4.07;2.10;;;14.90;99.90;;;;;;5033754;28;20042;-70
2022/08/08 06:03:22;;;;;;;3.47;2.10;;;15.00;99.90;;;;;;5033706;28;20046;-69
2022/08/08 06:05:50;;;;;;;5.55;2.60;;;15.10;99.90;;;;;;5033666;28;20049;-69
2022/08/08 06:08:35;;;;;;;3.35;2.00;;;15.20;99.90;;;;;;5033565;28;20049;-69
2022/08/08 06:11:02;;;;;;;4.60;2.25;;;15.30;99.90;;;;;;5034592;28;20092;-64
2022/08/08 06:13:29;;;;;;;6.15;2.30;;;15.40;99.90;;;;;;5033827;28;20386;-64
2022/08/08 06:15:55;;;;;;;3.10;1.90;;;15.50;99.90;;;;;;5033482;28;20091;-65
2022/08/08 06:18:23;;;;;;;5.30;1.80;;;15.60;99.90;;;;;;5033708;28;20441;-64
2022/08/08 06:20:52;;;;;;;6.80;2.55;;;15.70;99.90;;;;;;5033881;28;20042;-65
2022/08/08 06:23:19;;;;;;;4.78;2.25;;;15.80;99.90;;;;;;5016546;28;20462;-64
2022/08/08 06:26:04;;;;;;;2.83;2.10;;;15.90;99.90;;;;;;5033382;28;20041;-64
2022/08/08 06:28:56;;;;;;;3.78;1.90;;;16.00;99.90;;;;;;5016195;28;20518;-64
2022/08/08 06:31:22;;;;;;;4.32;2.10;;;16.20;99.90;;;;;;5033778;28;20051;-64
2022/08/08 06:34:17;;;;;;;2.90;1.88;;;16.30;99.90;;;;;;5033306;28;20045;-64
2022/08/08 06:36:44;;;;;;;4.38;2.25;;;16.50;99.90;;;;;;5033560;28;20399;-64
2022/08/08 06:39:15;;;;;;;3.47;1.70;;;16.60;99.90;;;;;;5033307;28;20137;-64
2022/08/08 06:41:56;;;;;;;6.07;1.70;;;16.80;99.90;;;;;;5033304;28;20044;-64
2022/08/08 06:44:24;;;;;;;5.07;1.80;;;16.90;99.90;;;;;;5033702;28;20096;-64
2022/08/08 06:46:53;;;;;;;2.03;1.30;;;17.00;99.90;;;;;;5033155;28;20463;-64
2022/08/08 06:49:19;;;;;;;5.13;1.63;;;17.10;99.90;;;;;;5015575;28;20540;-64
2022/08/08 06:51:45;;;;;;;2.80;1.60;;;17.20;99.90;;;;;;5033042;28;20046;-64
2022/08/08 06:54:12;;;;;;;2.40;1.33;;;17.30;99.90;;;;;;5033019;28;20478;-64
2022/08/08 06:56:38;;;;;;;3.42;1.50;;;17.40;99.90;;;;;;5033583;28;20055;-64
2022/08/08 06:59:04;;;;;;;4.03;1.48;;;17.40;99.90;;;;;;5017458;28;20081;-64
2022/08/08 07:01:37;;;;;;;4.18;1.48;;;17.50;99.90;;;;;;5037815;28;20052;-65
2022/08/08 07:04:18;;;;;;;3.85;1.38;;;17.60;99.90;;;;;;5037083;28;20046;-64
2022/08/08 07:06:55;;;;;;;3.88;1.30;;;17.70;99.90;;;;;;5004750;28;20498;-64
2022/08/08 07:09:27;;;;;;;4.75;1.45;;;17.80;99.90;;;;;;5037559;28;20041;-64
2022/08/08 07:11:56;;;;;;;4.60;2.28;;;17.80;99.90;;;;;;5019177;28;20042;-64
2022/08/08 07:14:33;;;;;;;4.18;1.40;;;17.90;99.90;;;;;;5036988;28;20412;-64
2022/08/08 07:17:03;;;;;;;4.78;1.63;;;17.90;99.90;;;;;;5037182;28;20398;-64
2022/08/08 07:19:53;;;;;;;4.10;1.50;;;18.00;99.90;;;;;;5037084;28;20128;-64
2022/08/08 07:22:27;;;;;;;4.07;1.48;;;18.10;99.90;;;;;;5035622;28;20124;-64
2022/08/08 07:24:56;;;;;;;2.95;1.70;;;18.10;99.90;;;;;;5036875;28;20057;-64
2022/08/08 07:27:24;;;;;;;3.92;1.60;;;18.20;99.90;;;;;;5036423;28;20041;-64
2022/08/08 07:29:51;;;;;;;2.70;1.40;;;18.30;99.90;;;;;;5035354;28;20057;-64
2022/08/08 07:32:17;;;;;;;3.13;1.40;;;18.40;99.90;;;;;;5018350;28;20425;-63
2022/08/08 07:34:44;;;;;;;2.85;1.67;;;18.50;99.90;;;;;;5035084;28;20079;-64
2022/08/08 07:37:12;;;;;;;4.43;1.27;;;18.60;99.90;;;;;;5035416;28;20474;-64
2022/08/08 07:39:41;;;;;;;2.60;1.30;;;18.60;99.90;;;;;;5035105;28;20045;-64
2022/08/08 07:42:10;;;;;;;3.65;1.45;;;18.60;99.90;;;;;;5034954;28;20049;-64
2022/08/08 07:44:36;;;;;;;4.07;1.45;;;18.60;99.90;;;;;;5034982;28;20049;-64
2022/08/08 07:47:01;;;;;;;3.03;1.45;;;18.70;99.90;;;;;;5035079;28;20402;-64
2022/08/08 07:49:27;;;;;;;3.97;1.38;;;18.70;99.90;;;;;;5035179;28;20052;-63
2022/08/08 07:51:55;;;;;;;2.80;1.38;;;18.70;99.90;;;;;;5017836;28;20124;-63
2022/08/08 07:54:29;;;;;;;3.00;1.30;;;18.70;99.90;;;;;;5017637;28;20072;-64
2022/08/08 07:57:05;;;;;;;2.95;1.48;;;18.80;99.90;;;;;;5034783;28;20080;-64
2022/08/08 07:59:36;;;;;;;2.65;1.50;;;18.80;99.90;;;;;;5035111;28;20050;-64
2022/08/08 08:02:08;;;;;;;4.07;1.50;;;18.80;99.90;;;;;;5034823;28;20038;-64
2022/08/08 08:04:38;;;;;;;2.05;1.40;;;18.90;99.90;;;;;;5034927;28;20041;-64
2022/08/08 08:07:04;;;;;;;3.33;1.40;;;18.90;99.90;;;;;;5034356;28;20548;-64
2022/08/08 08:09:38;;;;;;;3.38;1.25;;;19.00;99.90;;;;;;5034277;28;20136;-63
2022/08/08 08:12:04;;;;;;;2.38;1.20;;;19.10;99.90;;;;;;5034567;28;20132;-64
2022/08/08 08:14:49;;;;;;;3.92;1.25;;;19.20;99.90;;;;;;5034995;28;20395;-63
2022/08/08 08:17:18;;;;;;;3.00;1.30;;;19.20;99.90;;;;;;5035033;28;20124;-63
2022/08/08 08:19:48;;;;;;;3.25;1.60;;;19.30;99.90;;;;;;5034930;28;20057;-63
2022/08/08 08:22:15;;;;;;;3.00;1.20;;;19.30;99.90;;;;;;5034625;28;20045;-63
2022/08/08 08:24:44;;;;;;;2.67;1.17;;;19.40;99.90;;;;;;5016859;28;20554;-64
2022/08/08 08:27:10;;;;;;;1.77;1.02;;;19.40;99.90;;;;;;5034303;28;20045;-64
2022/08/08 08:29:36;;;;;;;2.58;1.20;;;19.40;99.90;;;;;;4991741;28;1226492;-63
2022/08/08 08:32:01;;;;;;;5.30;1.40;;;19.50;99.90;;;;;;5035306;28;20055;-64
2022/08/08 08:34:27;;;;;;;4.10;1.63;;;19.60;99.90;;;;;;5035852;28;20084;-64
2022/08/08 08:36:53;;;;;;;2.58;1.10;;;19.70;99.90;;;;;;5035151;28;20041;-63
2022/08/08 08:39:18;;;;;;;2.92;1.15;;;19.70;99.90;;;;;;5035140;28;20092;-63
2022/08/08 08:41:45;;;;;;;3.28;1.27;;;19.70;99.90;;;;;;5034920;28;20470;-64
2022/08/08 08:44:11;;;;;;;2.95;1.13;;;19.60;99.90;;;;;;5034858;28;20053;-64
2022/08/08 08:46:37;;;;;;;2.40;1.30;;;19.60;99.90;;;;;;5034939;28;20053;-64
2022/08/08 08:49:04;;;;;;;2.45;1.15;;;19.60;99.90;;;;;;5034949;28;20394;-63
2022/08/08 08:51:34;;;;;;;2.13;1.10;;;19.70;99.90;;;;;;5034762;28;20041;-64
2022/08/08 08:54:02;;;;;;;3.10;1.20;;;19.90;99.90;;;;;;5035430;28;20049;-63
2022/08/08 08:56:28;;;;;;;2.75;1.10;;;20.10;99.90;;;;;;5017327;28;20474;-64
2022/08/08 08:58:56;;;;;;;3.53;1.00;;;20.20;99.90;;;;;;5034957;28;20129;-64
2022/08/08 09:01:25;;;;;;;2.92;1.30;;;20.40;99.90;;;;;;5034654;28;20045;-64
2022/08/08 09:03:54;;;;;;;2.60;1.10;;;20.40;99.90;;;;;;5034582;28;20064;-64
2022/08/08 09:06:24;;;;;;;2.38;1.10;;;20.50;99.90;;;;;;5034401;28;20091;-64
2022/08/08 09:08:56;;;;;;;2.45;0.90;;;20.40;99.90;;;;;;5034632;28;20074;-64
2022/08/08 09:11:23;;;;;;;2.70;1.20;;;20.30;99.90;;;;;;5034720;28;20050;-64
2022/08/08 09:13:51;;;;;;;3.45;1.30;;;20.20;99.90;;;;;;5034838;28;20125;-65
2022/08/08 09:16:17;;;;;;;1.83;0.90;;;20.20;99.90;;;;;;5034373;28;20474;-64
2022/08/08 09:18:44;;;;;;;1.83;0.90;;;20.30;99.90;;;;;;5034587;28;20046;-65
2022/08/08 09:21:12;;;;;;;1.73;1.10;;;20.60;99.90;;;;;;5033969;28;20057;-65
2022/08/08 09:23:37;;;;;;;3.83;1.30;;;20.80;99.90;;;;;;5034248;28;20061;-65
2022/08/08 09:26:31;;;;;;;3.47;1.00;;;21.10;99.90;;;;;;5034807;28;20416;-64
2022/08/08 09:28:59;;;;;;;2.95;1.77;;;21.20;99.90;;;;;;5034610;28;20053;-64
2022/08/08 09:32:01;;;;;;;2.47;1.17;;;21.30;99.90;;;;;;5034455;28;20430;-64
2022/08/08 09:34:31;;;;;;;2.97;1.10;;;21.50;99.90;;;;;;5020458;28;20053;-63
2022/08/08 09:37:09;;;;;;;3.05;0.90;;;21.60;99.90;;;;;;5033958;28;20196;-65
2022/08/08 09:39:47;;;;;;;2.15;1.08;;;21.80;99.90;;;;;;5033896;28;20124;-64
2022/08/08 09:42:21;;;;;;;2.78;0.90;;;22.10;99.90;;;;;;5034468;28;20041;-64
2022/08/08 09:45:09;;;;;;;2.13;0.77;;;22.20;99.90;;;;;;5033969;28;20052;-65
2022/08/08 09:47:38;;;;;;;2.13;0.80;;;22.20;99.90;;;;;;5033877;28;20046;-67
2022/08/08 09:50:13;;;;;;;2.60;1.02;;;21.90;99.90;;;;;;5034437;28;20099;-64
2022/08/08 09:52:53;;;;;;;2.15;0.80;;;21.70;99.90;;;;;;5033827;28;20124;-64
2022/08/08 09:55:21;;;;;;;1.52;0.77;;;21.60;99.90;;;;;;5034432;28;20076;-64
2022/08/08 09:58:03;;;;;;;1.63;0.80;;;21.60;99.90;;;;;;5016278;28;20045;-66
2022/08/08 10:00:32;;;;;;;4.18;1.10;;;21.70;99.90;;;;;;5034171;28;20115;-65
2022/08/08 10:03:02;;;;;;;2.83;0.82;;;21.50;99.90;;;;;;5033529;28;20124;-64
2022/08/08 10:05:32;;;;;;;1.80;0.90;;;21.40;99.90;;;;;;5033825;28;20107;-64
2022/08/08 10:07:58;;;;;;;2.30;1.02;;;21.20;99.90;;;;;;5033531;28;20122;-64
2022/08/08 10:10:24;;;;;;;3.00;1.00;;;21.10;99.90;;;;;;5033175;28;20128;-64
2022/08/08 10:12:50;;;;;;;1.70;0.80;;;21.00;99.90;;;;;;5033456;28;20064;-64
2022/08/08 10:15:16;;;;;;;1.75;0.90;;;21.00;99.90;;;;;;5033333;28;20045;-64
2022/08/08 10:17:50;;;;;;;2.08;1.00;;;21.20;99.90;;;;;;5033657;28;20048;-64
2022/08/08 10:20:16;;;;;;;2.35;0.90;;;21.40;99.90;;;;;;5033257;28;20099;-64
2022/08/08 10:22:56;;;;;;;1.90;0.60;;;21.50;99.90;;;;;;5034097;28;20140;-64
2022/08/08 10:25:23;;;;;;;1.90;0.70;;;21.70;99.90;;;;;;5033754;28;20046;-63
2022/08/08 10:27:51;;;;;;;1.52;0.63;;;21.70;99.90;;;;;;5033445;28;20587;-64
2022/08/08 10:30:21;;;;;;;0.95;0.57;;;21.60;99.90;;;;;;4999721;28;20046;-63
2022/08/08 10:32:57;;;;;;;2.28;0.70;;;21.60;99.90;;;;;;5033603;28;20397;-63
2022/08/08 10:35:26;;;;;;;1.17;0.60;;;21.60;99.90;;;;;;5033184;28;20084;-65
2022/08/08 10:37:54;;;;;;;1.75;0.80;;;21.50;99.90;;;;;;5015615;28;20049;-65
2022/08/08 10:40:21;;;;;;;2.55;0.77;;;21.60;99.90;;;;;;5033127;28;20045;-64
2022/08/08 10:42:49;;;;;;;1.50;0.80;;;21.80;99.90;;;;;;5033641;28;20378;-65
2022/08/08 10:45:15;;;;;;;1.23;0.70;;;21.90;99.90;;;;;;5033107;28;20068;-65
2022/08/08 10:47:41;;;;;;;1.30;0.60;;;21.80;99.90;;;;;;5015741;28;20144;-65
2022/08/08 10:50:08;;;;;;;2.80;0.70;;;21.70;99.90;;;;;;5032931;28;20045;-65
2022/08/08 10:52:39;;;;;;;1.95;0.95;;;21.50;99.90;;;;;;5032960;28;20049;-65
2022/08/08 10:55:14;;;;;;;1.70;0.85;;;21.30;99.90;;;;;;5033200;28;20521;-64
2022/08/08 10:57:42;;;;;;;3.15;0.95;;;21.10;99.90;;;;;;5033503;28;20356;-64
2022/08/08 11:00:09;;;;;;;2.47;1.00;;;21.00;99.90;;;;;;5032923;28;20107;-63
2022/08/08 11:02:35;;;;;;;2.30;0.90;;;20.80;99.90;;;;;;5032943;28;20060;-63
2022/08/08 11:05:08;;;;;;;2.15;0.88;;;20.70;99.90;;;;;;5016201;28;20053;-63
2022/08/08 11:07:42;;;;;;;2.03;0.90;;;20.60;99.90;;;;;;5033345;28;20045;-65
2022/08/08 11:10:12;;;;;;;2.15;0.90;;;20.60;99.90;;;;;;5033338;28;20083;-64
2022/08/08 11:12:51;;;;;;;1.98;0.93;;;20.60;99.90;;;;;;5032399;28;20406;-65
2022/08/08 11:15:22;;;;;;;1.73;0.80;;;20.50;99.90;;;;;;5032992;28;20433;-64
2022/08/08 11:17:48;;;;;;;3.22;1.00;;;20.50;99.90;;;;;;5032934;28;20056;-64
2022/08/08 11:20:18;;;;;;;3.78;1.00;;;20.60;99.90;;;;;;5032478;28;20050;-65
2022/08/08 11:22:50;;;;;;;2.03;1.00;;;20.60;99.90;;;;;;5032572;28;20042;-65
2022/08/08 11:25:17;;;;;;;2.13;0.77;;;20.70;99.90;;;;;;5033393;28;20045;-65
2022/08/08 11:27:46;;;;;;;2.25;0.90;;;20.80;99.90;;;;;;5032621;28;20046;-65
2022/08/08 11:30:14;;;;;;;1.52;0.80;;;20.80;99.90;;;;;;5033578;28;20089;-65
2022/08/08 11:32:41;;;;;;;3.13;0.88;;;20.90;99.90;;;;;;5032510;28;20049;-65
2022/08/08 11:35:09;;;;;;;2.95;0.90;;;21.00;99.90;;;;;;5032869;28;20493;-65
2022/08/08 11:37:37;;;;;;;2.40;0.88;;;21.10;99.90;;;;;;5032583;28;20048;-65
2022/08/08 11:40:05;;;;;;;2.60;1.10;;;21.20;99.90;;;;;;5032842;28;20081;-65
2022/08/08 11:42:32;;;;;;;3.25;0.90;;;21.30;99.90;;;;;;5015699;28;20054;-64
2022/08/08 11:44:58;;;;;;;2.63;0.90;;;21.30;99.90;;;;;;5016652;28;20055;-65
2022/08/08 11:47:24;;;;;;;1.45;0.70;;;21.40;99.90;;;;;;5035814;28;20478;-65
2022/08/08 11:49:54;;;;;;;1.55;0.70;;;21.50;99.90;;;;;;5036633;28;20478;-65
2022/08/08 11:52:21;;;;;;;1.55;0.80;;;21.50;99.90;;;;;;5035988;28;20041;-65
2022/08/08 11:54:47;;;;;;;2.35;0.80;;;21.60;99.90;;;;;;5019358;28;20352;-65
2022/08/08 11:57:20;;;;;;;2.13;0.65;;;21.70;99.90;;;;;;5018529;28;20075;-65
2022/08/08 11:59:58;;;;;;;1.65;0.70;;;21.80;99.90;;;;;;5035692;28;20470;-65
2022/08/08 12:02:27;;;;;;;2.15;0.57;;;22.00;99.90;;;;;;5035853;28;20052;-65
2022/08/08 12:05:10;;;;;;;2.15;0.77;;;22.10;99.90;;;;;;5018255;28;20081;-65
2022/08/08 12:07:47;;;;;;;2.97;0.85;;;22.30;99.90;;;;;;5035729;28;20078;-65
2022/08/08 12:10:17;;;;;;;1.60;0.65;;;22.40;99.90;;;;;;5035944;28;20041;-65
2022/08/08 12:12:48;;;;;;;2.63;0.70;;;22.40;99.90;;;;;;5035957;28;20537;-64
2022/08/08 12:15:32;;;;;;;1.60;0.60;;;22.40;99.90;;;;;;5035669;28;20041;-65
2022/08/08 12:17:58;;;;;;;1.70;0.80;;;22.50;99.90;;;;;;5035604;28;20084;-64
2022/08/08 12:20:24;;;;;;;2.53;0.80;;;22.60;99.90;;;;;;5018646;28;20053;-64
2022/08/08 12:22:52;;;;;;;3.00;0.90;;;22.60;99.90;;;;;;5035539;28;20055;-64
2022/08/08 12:25:24;;;;;;;1.70;0.77;;;22.60;99.90;;;;;;5035387;28;20084;-64
2022/08/08 12:27:51;;;;;;;2.03;0.70;;;22.60;99.90;;;;;;5035709;28;20123;-64
2022/08/08 12:30:29;;;;;;;1.90;0.52;;;22.70;99.90;;;;;;5035406;28;20528;-64
2022/08/08 12:32:58;;;;;;;1.63;0.70;;;22.70;99.90;;;;;;5035930;28;20114;-65
2022/08/08 12:35:26;;;;;;;2.22;0.60;;;22.60;99.90;;;;;;5035292;28;20041;-64
2022/08/08 12:38:05;;;;;;;1.98;0.68;;;22.50;99.90;;;;;;5035261;28;20049;-64
2022/08/08 12:40:39;;;;;;;2.30;0.70;;;22.40;99.90;;;;;;5035494;28;20120;-65
2022/08/08 12:43:05;;;;;;;2.17;0.60;;;22.40;99.90;;;;;;5035129;28;20068;-64
2022/08/08 12:45:40;;;;;;;1.90;0.65;;;22.50;99.90;;;;;;5035081;28;20081;-64
2022/08/08 12:48:19;;;;;;;2.13;0.80;;;22.60;99.90;;;;;;5035485;28;20095;-64
2022/08/08 12:50:48;;;;;;;2.95;0.80;;;22.60;99.90;;;;;;5034744;28;20303;-64
2022/08/08 12:53:22;;;;;;;2.60;0.75;;;22.50;99.90;;;;;;5034745;28;20042;-64
2022/08/08 12:56:05;;;;;;;1.25;0.73;;;22.50;99.90;;;;;;5033592;28;20055;-64
2022/08/08 12:58:51;;;;;;;1.38;0.60;;;22.60;99.90;;;;;;5034807;28;20061;-64
2022/08/08 13:01:16;;;;;;;1.45;0.60;;;22.70;99.90;;;;;;5034923;28;20543;-64
2022/08/08 13:03:47;;;;;;;4.97;0.75;;;22.70;99.90;;;;;;5017092;28;20128;-64
2022/08/08 13:06:16;;;;;;;2.88;0.68;;;22.70;99.90;;;;;;5034500;28;20046;-64
2022/08/08 13:08:44;;;;;;;2.00;0.73;;;22.70;99.90;;;;;;5034391;28;20049;-64
2022/08/08 13:11:25;;;;;;;1.52;0.70;;;22.70;99.90;;;;;;5017557;28;20391;-65
2022/08/08 13:14:02;;;;;;;3.53;0.70;;;22.60;99.90;;;;;;5034740;28;20045;-64
2022/08/08 13:16:30;;;;;;;2.08;0.68;;;22.50;99.90;;;;;;5034853;28;20045;-64
2022/08/08 13:18:57;;;;;;;1.95;0.60;;;22.40;99.90;;;;;;5034604;28;20038;-64
2022/08/08 13:21:23;;;;;;;2.63;0.80;;;22.30;99.90;;;;;;5034303;28;20049;-64
2022/08/08 13:23:49;;;;;;;1.33;0.55;;;22.40;99.90;;;;;;5034234;28;20192;-64
2022/08/08 13:26:15;;;;;;;2.10;0.60;;;22.50;99.90;;;;;;5034373;28;20132;-65